Time;durP1;ratioP1;P1;durP2;ratioP2;P2;SDS_P1;SDS_P2;PMS_P1;PMS_P2;Temp;Humidity;BMP_temperature;BMP_pressure;BME280_temperature;BME280_humidity;BME280_pressure;Samples;Min_cycle;Max_cycle;Signal;HPM_P1;HPM_P2
2023/08/05 00:00:53;;;;;;;10.68;9.57;;;;;;;17.25;100.00;97821.34;5016902;28;20064;-93
2023/08/05 00:03:20;;;;;;;10.30;9.00;;;;;;;17.28;100.00;97831.00;5021086;28;20177;-92
2023/08/05 00:05:46;;;;;;;11.02;8.73;;;;;;;17.22;100.00;97807.28;5019453;28;20132;-92
2023/08/05 00:08:12;;;;;;;10.20;9.30;;;;;;;17.26;100.00;97811.44;5019304;28;20049;-92
2023/08/05 00:10:42;;;;;;;10.02;9.23;;;;;;;17.39;100.00;97833.84;5017102;28;20045;-92
2023/08/05 00:13:07;;;;;;;11.73;9.95;;;;;;;17.51;100.00;97837.50;5024965;28;20037;-93
2023/08/05 00:15:33;;;;;;;10.82;9.27;;;;;;;17.37;100.00;97792.78;5020422;28;20525;-93
2023/08/05 00:17:59;;;;;;;11.05;10.07;;;;;;;17.40;100.00;97792.56;5021661;28;20037;-92
2023/08/05 00:20:26;;;;;;;10.80;9.38;;;;;;;17.48;100.00;97802.78;5017227;28;20083;-91
2023/08/05 00:22:52;;;;;;;9.38;8.57;;;;;;;17.46;100.00;97793.97;5025996;28;20101;-91
2023/08/05 00:25:18;;;;;;;12.35;8.82;;;;;;;17.39;100.00;97772.03;5023395;28;20100;-93
2023/08/05 00:27:44;;;;;;;10.57;8.57;;;;;;;17.36;100.00;97782.97;5020867;28;20065;-92
2023/08/05 00:30:11;;;;;;;10.27;9.27;;;;;;;17.36;100.00;97793.72;5022699;28;20061;-91
2023/08/05 00:32:37;;;;;;;9.25;8.50;;;;;;;17.18;100.00;97770.84;5022495;28;20128;-91
2023/08/05 00:35:03;;;;;;;10.20;9.10;;;;;;;17.11;100.00;97762.38;5020192;28;20109;-92
2023/08/05 00:37:31;;;;;;;10.93;9.07;;;;;;;17.10;100.00;97783.94;5022962;28;20045;-92
2023/08/05 00:39:57;;;;;;;9.57;8.73;;;;;;;16.94;100.00;97765.38;5017376;28;20518;-92
2023/08/05 00:42:23;;;;;;;8.82;8.02;;;;;;;16.78;100.00;97757.44;5024077;28;20053;-92
2023/08/05 00:44:48;;;;;;;9.02;8.20;;;;;;;16.87;100.00;97774.78;5023650;28;20049;-92
2023/08/05 00:47:18;;;;;;;10.23;9.25;;;;;;;16.69;100.00;97748.19;5016870;28;20041;-91
2023/08/05 00:49:45;;;;;;;10.40;8.45;;;;;;;16.62;100.00;97742.38;5021122;28;20136;-93
2023/08/05 00:52:13;;;;;;;10.60;8.50;;;;;;;16.70;100.00;97765.16;5020275;28;20049;-93
2023/08/05 00:54:41;;;;;;;9.32;8.52;;;;;;;16.58;100.00;97750.75;5017867;28;20053;-92
2023/08/05 00:57:09;;;;;;;12.93;8.63;;;;;;;16.59;100.00;97764.09;5023374;28;20044;-92
2023/08/05 00:59:35;;;;;;;14.23;8.98;;;;;;;16.66;100.00;97761.00;5023104;28;20042;-92
2023/08/05 01:02:00;;;;;;;9.73;8.80;;;;;;;16.53;100.00;97737.66;5022177;28;20037;-93
2023/08/05 01:04:26;;;;;;;11.52;9.05;;;;;;;16.66;100.00;97737.69;5014638;28;20034;-93
2023/08/05 01:06:54;;;;;;;11.70;10.15;;;;;;;16.74;100.00;97746.09;5024691;28;20045;-93
2023/08/05 01:09:19;;;;;;;11.20;10.25;;;;;;;16.63;100.00;97717.28;5020903;28;20415;-94
2023/08/05 01:11:47;;;;;;;11.35;10.45;;;;;;;16.71;100.00;97730.16;5022242;28;20071;-93
2023/08/05 01:14:13;;;;;;;13.35;11.68;;;;;;;16.62;100.00;97710.19;5018119;28;20048;-92
2023/08/05 01:16:39;;;;;;;15.82;14.63;;;;;;;16.60;100.00;97725.53;5023620;28;20041;-93
2023/08/05 01:19:10;;;;;;;15.57;14.48;;;;;;;16.55;100.00;97716.09;5019605;28;20045;-92
2023/08/05 01:21:45;;;;;;;15.60;14.68;;;;;;;16.53;100.00;97715.34;5019836;28;20044;-93
2023/08/05 01:24:19;;;;;;;16.38;14.85;;;;;;;16.40;100.00;97709.94;5019310;28;20486;-94
2023/08/05 01:26:47;;;;;;;15.88;14.68;;;;;;;16.35;100.00;97707.56;5022104;28;20141;-93
2023/08/05 01:29:13;;;;;;;12.93;12.00;;;;;;;16.39;100.00;97729.66;5020779;28;20041;-91
2023/08/05 01:31:44;;;;;;;11.45;10.48;;;;;;;16.40;100.00;97728.72;5021416;28;20056;-93
2023/08/05 01:34:11;;;;;;;11.32;10.30;;;;;;;16.32;100.00;97731.06;5021939;28;20041;-91
2023/08/05 01:36:36;;;;;;;11.90;11.13;;;;;;;16.06;100.00;97706.81;5023996;28;20053;-93
2023/08/05 01:39:02;;;;;;;12.30;11.40;;;;;;;15.98;100.00;97699.31;5019984;28;20037;-91
2023/08/05 01:41:29;;;;;;;14.50;13.43;;;;;;;15.92;100.00;97706.88;5007781;28;20115;-93
2023/08/05 01:43:56;;;;;;;13.35;12.18;;;;;;;15.96;100.00;97703.03;5002652;28;20042;-91
2023/08/05 01:46:22;;;;;;;12.55;11.77;;;;;;;16.00;100.00;97713.47;5002544;28;20053;-92
2023/08/05 01:48:48;;;;;;;11.93;11.02;;;;;;;15.93;100.00;97714.81;5002942;28;20446;-93
2023/08/05 01:51:14;;;;;;;12.77;11.88;;;;;;;16.01;100.00;97727.72;5002066;28;20492;-92
2023/08/05 01:53:39;;;;;;;14.45;13.40;;;;;;;15.94;100.00;97729.06;5002015;28;20038;-92
2023/08/05 01:56:05;;;;;;;17.73;14.77;;;;;;;15.89;100.00;97725.84;5003785;28;20042;-93
2023/08/05 01:58:31;;;;;;;15.85;14.85;;;;;;;15.91;100.00;97740.00;4999663;28;20042;-93
2023/08/05 02:00:58;;;;;;;21.38;14.77;;;;;;;15.74;100.00;97719.66;5003639;28;20908;-91
2023/08/05 02:03:24;;;;;;;15.60;14.70;;;;;;;15.73;100.00;97702.72;5001744;28;20054;-94
2023/08/05 02:05:50;;;;;;;14.77;13.32;;;;;;;15.72;100.00;97705.50;5003059;28;20068;-93
2023/08/05 02:08:16;;;;;;;15.45;13.32;;;;;;;15.82;100.00;97714.66;5001655;28;20044;-94
2023/08/05 02:10:42;;;;;;;15.50;14.27;;;;;;;15.78;100.00;97718.50;5000143;28;20137;-91
2023/08/05 02:13:08;;;;;;;14.35;13.30;;;;;;;15.66;100.00;97708.53;5001340;28;20065;-92
2023/08/05 02:15:34;;;;;;;13.93;12.82;;;;;;;15.79;100.00;97737.16;5000537;28;20042;-92
2023/08/05 02:18:02;;;;;;;13.90;12.68;;;;;;;15.71;100.00;97723.41;5002307;28;20052;-93
2023/08/05 02:20:28;;;;;;;14.32;13.30;;;;;;;15.76;100.00;97729.31;5002608;28;20034;-92
2023/08/05 02:22:54;;;;;;;14.77;13.60;;;;;;;15.89;100.00;97747.28;4995422;28;20046;-93
2023/08/05 02:25:20;;;;;;;15.35;14.15;;;;;;;15.92;100.00;97749.78;5003932;28;20049;-92
2023/08/05 02:27:46;;;;;;;15.07;14.10;;;;;;;15.82;100.00;97744.16;5002011;28;20034;-93
2023/08/05 02:30:12;;;;;;;20.45;13.40;;;;;;;15.88;100.00;97746.44;4999156;28;20074;-92
2023/08/05 02:32:37;;;;;;;15.82;14.60;;;;;;;15.84;100.00;97722.63;5003334;28;20491;-92
2023/08/05 02:35:05;;;;;;;13.98;13.07;;;;;;;15.82;100.00;97730.75;4999377;28;20057;-93
2023/08/05 02:37:31;;;;;;;15.60;14.15;;;;;;;15.76;100.00;97723.09;4998769;28;20038;-92
2023/08/05 02:39:57;;;;;;;14.45;13.45;;;;;;;15.80;100.00;97729.97;5003370;28;20104;-93
2023/08/05 02:42:23;;;;;;;14.20;13.20;;;;;;;15.79;100.00;97733.63;4995953;28;20053;-92
2023/08/05 02:44:50;;;;;;;14.00;13.15;;;;;;;15.73;100.00;97721.47;5004127;28;20068;-91
2023/08/05 02:47:16;;;;;;;16.70;15.27;;;;;;;15.78;100.00;97726.53;4998937;28;20038;-93
2023/08/05 02:49:42;;;;;;;15.20;14.15;;;;;;;16.01;100.00;97744.66;5000715;28;20056;-93
2023/08/05 02:52:09;;;;;;;14.93;13.73;;;;;;;16.05;100.00;97739.09;4998761;28;20043;-93
2023/08/05 02:54:35;;;;;;;14.77;13.45;;;;;;;15.92;100.00;97731.03;5002095;28;20122;-93
2023/08/05 02:57:01;;;;;;;13.98;12.98;;;;;;;15.81;100.00;97718.31;5002964;28;20073;-92
2023/08/05 02:59:28;;;;;;;15.55;14.35;;;;;;;15.74;100.00;97719.66;5000429;28;20161;-93
2023/08/05 03:01:54;;;;;;;15.57;14.07;;;;;;;15.73;100.00;97747.44;4999220;28;20046;-93
2023/08/05 03:04:19;;;;;;;15.70;14.57;;;;;;;15.79;100.00;97749.72;4994670;28;20520;-93
2023/08/05 03:06:45;;;;;;;16.30;15.10;;;;;;;15.63;100.00;97727.50;4999205;28;20050;-95
2023/08/05 03:09:13;;;;;;;15.45;14.35;;;;;;;15.54;100.00;97726.28;4996794;28;20500;-91
2023/08/05 03:11:39;;;;;;;14.07;13.02;;;;;;;15.54;100.00;97726.28;5002370;28;20042;-93
2023/08/05 03:14:05;;;;;;;14.70;13.55;;;;;;;15.61;100.00;97732.94;4999886;28;20369;-93
2023/08/05 03:16:31;;;;;;;14.07;12.88;;;;;;;15.70;100.00;97743.09;5001757;28;20037;-92
2023/08/05 03:18:57;;;;;;;13.95;12.68;;;;;;;15.56;100.00;97719.84;4997246;28;20041;-93
2023/08/05 03:21:23;;;;;;;13.80;12.68;;;;;;;15.65;100.00;97722.91;5002592;28;20042;-93
2023/08/05 03:23:49;;;;;;;14.95;14.00;;;;;;;15.77;100.00;97746.28;5000637;28;20241;-91
2023/08/05 03:26:16;;;;;;;15.13;14.00;;;;;;;15.61;100.00;97717.75;4998090;28;20042;-92
2023/08/05 03:28:42;;;;;;;15.38;14.18;;;;;;;15.69;100.00;97744.03;5002892;28;20042;-91
2023/08/05 03:31:08;;;;;;;15.80;14.80;;;;;;;15.63;100.00;97736.38;4999641;28;20061;-91
2023/08/05 03:33:34;;;;;;;15.60;14.43;;;;;;;15.46;100.00;97734.81;4995918;28;20142;-92
2023/08/05 03:36:00;;;;;;;16.38;15.13;;;;;;;15.57;100.00;97767.13;4996112;28;20042;-91
2023/08/05 03:38:25;;;;;;;15.73;14.63;;;;;;;15.53;100.00;97757.56;5001618;28;20034;-94
2023/08/05 03:40:51;;;;;;;16.45;15.35;;;;;;;15.37;100.00;97727.34;5002626;28;20053;-93
2023/08/05 03:43:19;;;;;;;14.82;13.88;;;;;;;15.46;100.00;97734.81;4998109;28;20411;-91
2023/08/05 03:45:50;;;;;;;14.55;13.35;;;;;;;15.56;100.00;97751.16;4996044;28;20046;-91
2023/08/05 03:48:16;;;;;;;14.27;13.27;;;;;;;15.60;100.00;97739.28;4999381;28;20038;-93
2023/08/05 03:50:41;;;;;;;13.50;12.35;;;;;;;15.48;100.00;97718.63;4996850;28;20048;-92
2023/08/05 03:53:07;;;;;;;15.05;13.73;;;;;;;15.68;100.00;97718.22;4998356;28;20387;-93
2023/08/05 03:55:33;;;;;;;14.50;13.50;;;;;;;15.75;100.00;97724.06;5000328;28;20037;-93
2023/08/05 03:57:59;;;;;;;26.33;14.73;;;;;;;15.60;100.00;97707.13;4996360;28;20038;-91
2023/08/05 04:00:28;;;;;;;13.65;12.55;;;;;;;15.53;100.00;97720.06;4997806;28;20034;-92
2023/08/05 04:02:54;;;;;;;14.43;13.30;;;;;;;15.50;100.00;97717.56;5002668;28;20136;-92
2023/08/05 04:05:20;;;;;;;13.60;12.32;;;;;;;15.62;100.00;97734.69;5002749;28;20264;-92
2023/08/05 04:07:47;;;;;;;13.70;12.50;;;;;;;15.43;100.00;97715.38;5001466;28;20052;-93
2023/08/05 04:10:13;;;;;;;14.07;13.02;;;;;;;15.67;100.00;97729.88;5000978;28;20038;-93
2023/08/05 04:12:39;;;;;;;15.95;13.48;;;;;;;15.62;100.00;97723.97;4996926;28;20047;-92
2023/08/05 04:15:07;;;;;;;20.25;13.85;;;;;;;15.52;100.00;97722.81;4996366;28;20038;-93
2023/08/05 04:17:35;;;;;;;19.60;13.43;;;;;;;15.52;100.00;97730.88;5000446;28;20037;-93
2023/08/05 04:20:02;;;;;;;14.80;13.57;;;;;;;15.49;100.00;97709.63;5000825;28;20038;-93
2023/08/05 04:22:28;;;;;;;14.70;13.07;;;;;;;15.52;100.00;97706.75;5002020;28;20042;-93
2023/08/05 04:24:54;;;;;;;13.90;12.52;;;;;;;15.50;100.00;97697.94;4997215;28;20038;-91
2023/08/05 04:27:21;;;;;;;14.68;13.25;;;;;;;15.54;100.00;97694.97;5001046;28;20045;-93
2023/08/05 04:29:48;;;;;;;14.88;13.68;;;;;;;15.55;100.00;97694.03;5002238;28;20038;-92
2023/08/05 04:32:14;;;;;;;14.43;12.73;;;;;;;15.55;100.00;97717.28;4999185;28;20045;-91
2023/08/05 04:34:41;;;;;;;13.25;12.25;;;;;;;15.57;100.00;97704.63;4997121;28;20062;-93
2023/08/05 04:37:17;;;;;;;14.35;13.30;;;;;;;15.70;100.00;97697.53;4999253;28;20133;-93
2023/08/05 04:39:44;;;;;;;13.05;11.95;;;;;;;15.62;100.00;97670.38;4999685;28;20046;-93
2023/08/05 04:42:10;;;;;;;13.88;12.73;;;;;;;15.71;100.00;97663.56;5001270;28;20061;-93
2023/08/05 04:44:37;;;;;;;13.80;12.63;;;;;;;15.73;100.00;97672.38;5000736;28;20045;-92
2023/08/05 04:47:04;;;;;;;13.48;12.10;;;;;;;15.94;100.00;97694.22;5002300;28;20137;-93
2023/08/05 04:49:29;;;;;;;13.43;12.23;;;;;;;15.94;100.00;97675.44;4997425;28;20046;-93
2023/08/05 04:51:57;;;;;;;13.10;11.77;;;;;;;16.01;100.00;97666.06;4995651;28;20148;-92
2023/08/05 04:54:23;;;;;;;13.02;11.77;;;;;;;16.28;100.00;97686.63;5000723;28;20034;-92
2023/08/05 04:56:49;;;;;;;12.32;11.23;;;;;;;16.09;100.00;97663.72;5000954;28;20041;-92
2023/08/05 04:59:15;;;;;;;13.63;12.40;;;;;;;16.32;100.00;97674.72;5001593;28;20043;-92
2023/08/05 05:01:41;;;;;;;13.55;12.45;;;;;;;16.43;100.00;97689.09;5002702;28;20045;-93
2023/08/05 05:04:07;;;;;;;14.38;12.90;;;;;;;16.47;100.00;97678.19;5005681;28;20038;-92
2023/08/05 05:06:32;;;;;;;13.38;12.05;;;;;;;16.53;100.00;97670.56;5003436;28;20515;-92
2023/08/05 05:09:00;;;;;;;14.48;12.70;;;;;;;16.72;100.00;97697.00;5004662;28;20385;-93
2023/08/05 05:11:26;;;;;;;14.60;12.48;;;;;;;16.88;100.00;97704.03;5004601;28;20054;-95
2023/08/05 05:13:52;;;;;;;15.00;12.38;;;;;;;16.76;100.00;97679.72;4999870;28;20381;-94
2023/08/05 05:16:18;;;;;;;21.25;12.77;;;;;;;16.82;100.00;97702.59;5000290;28;20128;-92
2023/08/05 05:18:44;;;;;;;16.23;12.95;;;;;;;16.67;100.00;97682.16;4999719;28;20042;-93
2023/08/05 05:21:10;;;;;;;17.92;13.70;;;;;;;16.51;100.00;97679.69;5005866;28;20136;-92
2023/08/05 05:23:38;;;;;;;14.07;12.63;;;;;;;16.83;100.00;97712.41;5002897;28;20042;-92
2023/08/05 05:26:06;;;;;;;13.82;12.40;;;;;;;16.67;100.00;97683.03;5005562;28;20077;-94
2023/08/05 05:28:31;;;;;;;16.08;11.40;;;;;;;16.75;100.00;97687.88;5006487;28;20058;-93
2023/08/05 05:31:02;;;;;;;15.43;12.48;;;;;;;16.81;100.00;97692.84;5005307;28;20045;-93
2023/08/05 05:33:28;;;;;;;13.23;11.82;;;;;;;16.77;100.00;97675.19;5005352;28;20042;-92
2023/08/05 05:35:53;;;;;;;12.27;11.02;;;;;;;16.77;100.00;97684.09;5003230;28;20076;-92
2023/08/05 05:38:19;;;;;;;13.73;12.52;;;;;;;16.90;100.00;97702.94;5006005;28;20113;-93
2023/08/05 05:40:45;;;;;;;12.63;11.13;;;;;;;16.53;100.00;97702.75;5004429;28;20053;-92
2023/08/05 05:43:13;;;;;;;20.67;11.07;;;;;;;16.49;100.00;97677.09;5002856;28;20049;-93
2023/08/05 05:45:39;;;;;;;13.35;12.00;;;;;;;16.49;100.00;97674.41;4991672;28;20077;-92
2023/08/05 05:48:06;;;;;;;17.92;13.13;;;;;;;16.69;100.00;97707.09;5004945;28;20070;-92
2023/08/05 05:50:31;;;;;;;20.65;12.50;;;;;;;16.66;100.00;97692.06;5005458;28;20046;-93
2023/08/05 05:52:57;;;;;;;17.05;12.63;;;;;;;16.91;100.00;97693.91;5005232;28;20037;-94
2023/08/05 05:55:23;;;;;;;12.73;11.35;;;;;;;16.96;100.00;97683.72;5000879;28;20034;-94
2023/08/05 05:57:49;;;;;;;16.33;12.30;;;;;;;17.16;100.00;97668.88;5001248;28;20050;-94
2023/08/05 06:00:17;;;;;;;13.40;12.10;;;;;;;17.40;100.00;97665.38;5004839;28;20176;-95
2023/08/05 06:02:43;;;;;;;14.15;11.82;;;;;;;17.53;100.00;97674.28;5005653;28;20038;-92
2023/08/05 06:05:09;;;;;;;11.40;10.30;;;;;;;17.72;100.00;97668.41;5005016;28;20045;-94
2023/08/05 06:07:35;;;;;;;10.60;9.55;;;;;;;18.10;100.00;97698.84;5005625;28;20038;-93
2023/08/05 06:10:01;;;;;;;9.88;8.88;;;;;;;18.08;100.00;97674.72;4999110;28;20041;-93
2023/08/05 06:12:32;;;;;;;10.43;9.07;;;;;;;18.25;100.00;97714.69;5004913;28;20067;-95
2023/08/05 06:14:59;;;;;;;11.30;8.75;;;;;;;17.96;100.00;97681.06;5000027;28;20042;-93
2023/08/05 06:17:27;;;;;;;9.93;8.93;;;;;;;18.08;100.00;97692.72;4997132;28;20042;-92
2023/08/05 06:19:53;;;;;;;10.70;9.60;;;;;;;18.25;100.00;97686.91;5005048;28;20050;-94
2023/08/05 06:22:19;;;;;;;11.60;9.02;;;;;;;18.87;100.00;97704.66;5004803;28;20157;-94
2023/08/05 06:24:45;;;;;;;10.30;7.88;;;;;;;19.17;100.00;97687.03;5005143;28;20049;-94
2023/08/05 06:27:11;;;;;;;13.38;12.38;;;;;;;19.42;100.00;97692.19;5005441;28;20069;-92
2023/08/05 06:29:37;;;;;;;10.45;9.45;;;;;;;19.29;100.00;97695.00;5005133;28;20050;-94
2023/08/05 06:32:03;;;;;;;10.75;9.68;;;;;;;19.12;100.00;97703.56;5005780;28;20115;-94
2023/08/05 06:34:31;;;;;;;10.45;9.38;;;;;;;18.91;100.00;97700.75;5006242;28;20065;-93
2023/08/05 06:36:57;;;;;;;10.18;9.27;;;;;;;18.85;100.00;97690.44;5006670;28;20046;-93
2023/08/05 06:39:23;;;;;;;10.38;9.43;;;;;;;19.06;100.00;97699.53;5006008;28;20121;-94
2023/08/05 06:41:49;;;;;;;9.38;8.48;;;;;;;19.18;100.00;97710.31;5006679;28;20084;-94
2023/08/05 06:44:15;;;;;;;9.73;9.00;;;;;;;19.20;100.00;97700.28;5003426;28;20039;-94
2023/08/05 06:46:41;;;;;;;12.07;8.27;;;;;;;19.23;100.00;97706.25;4998241;28;20046;-93
2023/08/05 06:49:09;;;;;;;8.40;7.60;;;;;;;19.21;100.00;97701.97;4994266;28;20042;-94
2023/08/05 06:51:37;;;;;;;9.57;8.57;;;;;;;19.20;100.00;97702.97;4999352;28;20137;-94
2023/08/05 06:54:03;;;;;;;10.57;8.77;;;;;;;19.31;100.00;97721.00;5005065;28;20492;-92
2023/08/05 06:56:29;;;;;;;11.23;8.07;;;;;;;19.30;100.00;97717.44;5005982;28;20279;-96
2023/08/05 06:58:55;;;;;;;8.98;8.10;;;;;;;19.40;100.00;97712.16;5005373;28;20372;-92
2023/08/05 07:01:21;;;;;;;9.18;8.40;;;;;;;19.33;100.00;97722.56;5007210;28;20042;-96
2023/08/05 07:03:49;;;;;;;9.43;7.80;;;;;;;19.55;100.00;97745.97;5006490;28;20117;-95
2023/08/05 07:06:15;;;;;;;10.25;9.20;;;;;;;19.45;100.00;97723.41;5007066;28;20050;-94
2023/08/05 07:08:42;;;;;;;15.25;14.00;;;;;;;19.31;100.00;97716.44;5007677;28;20056;-94
2023/08/05 07:11:08;;;;;;;14.88;12.57;;;;;;;19.60;100.00;97732.13;5008945;28;20037;-93
2023/08/05 07:13:34;;;;;;;14.73;13.50;;;;;;;20.20;100.00;97741.63;5010536;28;20092;-93
2023/08/05 07:16:01;;;;;;;30.67;29.02;;;;;;;20.33;100.00;97722.56;5009027;28;20220;-93
2023/08/05 07:18:28;;;;;;;29.00;27.38;;;;;;;20.37;100.00;97733.97;5009152;28;20049;-93
2023/08/05 07:20:55;;;;;;;17.70;16.60;;;;;;;20.56;100.00;97749.47;5008190;28;20054;-93
2023/08/05 07:23:21;;;;;;;18.65;17.33;;;;;;;20.54;100.00;97719.91;5006362;28;20041;-95
2023/08/05 07:25:49;;;;;;;18.23;17.02;;;;;;;20.09;100.00;97725.47;5005675;28;20052;-94
2023/08/05 07:28:15;;;;;;;19.65;18.10;;;;;;;20.52;100.00;97732.69;5005113;28;20046;-94
2023/08/05 07:30:41;;;;;;;25.33;23.83;;;;;;;20.24;100.00;97709.84;5001480;28;20046;-94
2023/08/05 07:33:09;;;;;;;22.15;20.58;;;;;;;20.63;100.00;97753.41;5002683;28;20136;-93
2023/08/05 07:35:35;;;;;;;22.50;21.15;;;;;;;20.63;100.00;97731.81;5003577;28;20042;-93
2023/08/05 07:38:04;;;;;;;23.13;21.73;;;;;;;21.08;100.00;97745.06;4999140;28;20053;-93
2023/08/05 07:40:30;;;;;;;;;;;;;;;20.78;100.00;97760.22;5005649;28;20046;-93
2023/08/05 07:42:59;;;;;;;16.65;15.55;;;;;;;20.35;100.00;97752.16;5023634;28;19929;-92
2023/08/05 07:45:26;;;;;;;10.77;9.98;;;;;;;20.09;100.00;97738.97;5018724;28;20042;-93
2023/08/05 07:47:52;;;;;;;10.60;9.18;;;;;;;20.37;100.00;97725.88;5017556;28;20107;-93
2023/08/05 07:50:22;;;;;;;20.63;19.33;;;;;;;20.79;100.00;97736.75;5023592;28;20045;-93
2023/08/05 07:52:48;;;;;;;13.52;12.48;;;;;;;20.89;100.00;97730.44;5014468;28;20396;-92
2023/08/05 07:55:15;;;;;;;12.98;11.93;;;;;;;21.24;100.00;97728.38;5022614;28;20045;-93
2023/08/05 07:57:41;;;;;;;12.32;11.45;;;;;;;21.60;100.00;97726.13;5022718;28;20046;-94
2023/08/05 08:00:11;;;;;;;11.23;10.20;;;;;;;21.86;100.00;97726.50;5010009;28;20133;-92
2023/08/05 08:02:38;;;;;;;10.68;9.77;;;;;;;22.02;100.00;97744.94;5016676;28;20042;-94
2023/08/05 08:05:05;;;;;;;10.55;9.65;;;;;;;22.10;100.00;97734.28;5022674;28;20041;-94
2023/08/05 08:07:31;;;;;;;10.77;9.77;;;;;;;22.11;100.00;97761.22;5023099;28;20050;-94
2023/08/05 08:09:57;;;;;;;10.10;9.20;;;;;;;21.83;100.00;97735.75;5021581;28;20046;-94
2023/08/05 08:12:23;;;;;;;10.40;9.70;;;;;;;21.62;100.00;97737.69;5018389;28;20081;-93
2023/08/05 08:14:49;;;;;;;10.13;9.32;;;;;;;22.01;100.00;97743.22;5017924;28;20065;-93
2023/08/05 08:17:16;;;;;;;11.18;10.30;;;;;;;22.17;100.00;97745.41;5017630;28;20045;-93
2023/08/05 08:19:42;;;;;;;10.93;9.88;;;;;;;22.48;100.00;97755.16;5017287;28;20041;-94
2023/08/05 08:22:08;;;;;;;9.80;9.10;;;;;;;22.65;100.00;97756.31;5033235;28;20041;-93
2023/08/05 08:24:35;;;;;;;10.50;9.52;;;;;;;22.56;98.87;97732.81;5017025;28;20044;-93
2023/08/05 08:27:00;;;;;;;10.02;7.50;;;;;;;22.61;97.80;97741.34;5017460;28;20057;-94
2023/08/05 08:29:26;;;;;;;8.45;7.60;;;;;;;22.97;96.07;97736.19;5017037;28;20050;-93
2023/08/05 08:31:52;;;;;;;8.43;7.65;;;;;;;23.30;96.12;97732.16;5018068;28;20052;-92
2023/08/05 08:34:19;;;;;;;8.77;7.38;;;;;;;23.72;97.04;97728.13;5021770;28;20042;-94
2023/08/05 08:36:45;;;;;;;9.73;9.05;;;;;;;23.69;92.62;97731.16;5020607;28;20049;-94
2023/08/05 08:39:11;;;;;;;9.93;9.20;;;;;;;24.29;95.68;97733.41;5023142;28;20049;-95
2023/08/05 08:41:41;;;;;;;10.73;9.93;;;;;;;24.33;95.49;97734.81;5024905;28;20057;-93
2023/08/05 08:44:08;;;;;;;10.32;9.52;;;;;;;24.29;97.68;97726.16;5027454;28;20053;-95
2023/08/05 08:46:34;;;;;;;11.80;10.95;;;;;;;23.36;90.86;97718.00;5022630;28;20046;-94
2023/08/05 08:49:00;;;;;;;10.90;10.00;;;;;;;23.72;95.20;97709.13;5014890;28;20076;-94
2023/08/05 08:51:29;;;;;;;11.95;10.98;;;;;;;24.33;93.47;97724.84;5026534;28;20051;-94
2023/08/05 08:53:56;;;;;;;8.85;8.13;;;;;;;24.04;89.63;97714.16;5015536;28;20069;-94
2023/08/05 08:56:22;;;;;;;9.85;9.25;;;;;;;23.83;93.45;97706.25;5018115;28;20049;-94
2023/08/05 08:58:48;;;;;;;9.13;8.43;;;;;;;23.49;93.29;97712.25;5018509;28;20045;-94
2023/08/05 09:01:18;;;;;;;9.85;8.85;;;;;;;22.62;96.96;97715.97;5023588;28;20448;-92
2023/08/05 09:03:50;;;;;;;11.40;10.60;;;;;;;21.84;100.00;97723.97;5019351;28;20037;-95
2023/08/05 09:06:17;;;;;;;10.02;9.23;;;;;;;21.32;100.00;97742.94;5022133;28;20037;-93
2023/08/05 09:08:45;;;;;;;10.20;9.30;;;;;;;21.34;100.00;97732.84;5024311;28;20042;-93
2023/08/05 09:11:11;;;;;;;8.98;8.13;;;;;;;20.84;100.00;97708.38;5022048;28;20064;-94
2023/08/05 09:13:38;;;;;;;9.00;8.30;;;;;;;20.91;100.00;97722.19;5019570;28;20445;-95
2023/08/05 09:16:04;;;;;;;10.35;9.50;;;;;;;20.99;100.00;97725.09;5017173;28;20072;-94
2023/08/05 09:18:30;;;;;;;10.60;9.55;;;;;;;20.83;100.00;97713.91;5017527;28;20041;-93
2023/08/05 09:21:01;;;;;;;12.40;11.50;;;;;;;20.41;100.00;97735.44;5019177;28;20037;-92
2023/08/05 09:23:27;;;;;;;12.07;10.90;;;;;;;20.17;100.00;97723.00;5015887;28;20040;-93
2023/08/05 09:25:55;;;;;;;12.23;11.10;;;;;;;20.34;100.00;97735.06;5017946;28;20092;-93
2023/08/05 09:28:31;;;;;;;12.00;11.23;;;;;;;20.44;100.00;97718.97;5014933;28;20069;-94
2023/08/05 09:31:12;;;;;;;12.73;11.65;;;;;;;20.63;100.00;97712.91;5016427;28;20124;-93
2023/08/05 09:33:39;;;;;;;11.65;10.75;;;;;;;20.69;100.00;97718.63;5021014;28;20109;-93
2023/08/05 09:36:08;;;;;;;12.48;11.38;;;;;;;21.58;100.00;97729.00;5019364;28;20114;-93
2023/08/05 09:38:34;;;;;;;11.50;10.75;;;;;;;22.26;100.00;97726.50;5017719;28;20084;-92
2023/08/05 09:41:01;;;;;;;10.98;10.05;;;;;;;22.83;97.66;97706.81;5017631;28;20096;-93
2023/08/05 09:43:31;;;;;;;8.63;7.90;;;;;;;23.23;96.10;97725.63;5019600;28;20037;-93
2023/08/05 09:45:58;;;;;;;10.52;9.75;;;;;;;23.66;92.50;97707.03;5021058;28;20037;-92
2023/08/05 09:48:26;;;;;;;9.95;9.25;;;;;;;23.73;89.30;97706.28;5020287;28;20125;-92
2023/08/05 09:50:53;;;;;;;11.35;10.57;;;;;;;23.28;90.46;97706.19;5019965;28;20418;-95
2023/08/05 09:53:22;;;;;;;7.65;6.90;;;;;;;22.95;83.36;97724.66;5022984;28;20038;-93
2023/08/05 09:55:48;;;;;;;7.95;7.35;;;;;;;23.65;81.31;97698.03;5017861;28;20521;-94
2023/08/05 09:58:15;;;;;;;8.52;7.60;;;;;;;23.01;82.54;97724.09;5023302;28;20045;-93
2023/08/05 10:00:41;;;;;;;9.30;7.10;;;;;;;22.77;90.14;97725.38;5022842;28;20482;-93
2023/08/05 10:03:13;;;;;;;7.35;6.65;;;;;;;23.48;81.36;97707.81;5022655;28;20045;-94
2023/08/05 10:05:41;;;;;;;8.43;7.05;;;;;;;23.27;87.49;97709.88;5021974;28;20522;-93
2023/08/05 10:08:08;;;;;;;7.25;6.75;;;;;;;22.71;87.88;97716.97;5021825;28;20072;-94
2023/08/05 10:10:37;;;;;;;7.30;6.57;;;;;;;22.96;83.34;97704.66;5021784;28;20041;-93
2023/08/05 10:13:08;;;;;;;7.30;6.70;;;;;;;22.63;87.23;97708.69;5022148;28;20052;-93
2023/08/05 10:15:40;;;;;;;7.55;6.80;;;;;;;22.35;86.17;97709.38;5020869;28;20045;-93
2023/08/05 10:18:09;;;;;;;7.82;7.05;;;;;;;22.46;85.28;97737.34;5022121;28;20153;-93
2023/08/05 10:20:36;;;;;;;7.97;7.30;;;;;;;22.96;82.88;97718.19;5022396;28;20216;-94
2023/08/05 10:23:04;;;;;;;7.38;6.88;;;;;;;22.83;80.85;97706.81;5021474;28;20064;-95
2023/08/05 10:25:41;;;;;;;8.02;7.30;;;;;;;23.78;82.21;97722.16;5019910;28;20056;-94
2023/08/05 10:28:08;;;;;;;8.15;7.45;;;;;;;23.67;79.55;97698.75;5023325;28;20080;-94
2023/08/05 10:30:42;;;;;;;8.02;7.32;;;;;;;24.15;78.35;97694.91;5023634;28;20145;-94
2023/08/05 10:33:08;;;;;;;8.68;7.88;;;;;;;24.33;76.87;97697.66;5023197;28;20045;-94
2023/08/05 10:35:39;;;;;;;7.75;7.05;;;;;;;24.25;76.90;97703.00;5020250;28;20045;-93
2023/08/05 10:38:08;;;;;;;7.57;6.88;;;;;;;24.58;76.08;97692.47;5020921;28;20045;-93
2023/08/05 10:40:41;;;;;;;10.25;9.20;;;;;;;25.02;73.92;97704.22;5021270;28;20487;-95
2023/08/05 10:43:08;;;;;;;8.77;7.25;;;;;;;25.32;79.34;97702.06;5021006;28;20049;-95
2023/08/05 10:45:35;;;;;;;7.88;6.80;;;;;;;25.25;77.53;97697.44;5021034;28;20053;-93
2023/08/05 10:48:07;;;;;;;7.85;7.05;;;;;;;24.54;85.48;97726.41;5022988;28;20041;-94
2023/08/05 10:50:38;;;;;;;7.40;6.55;;;;;;;23.32;94.63;97711.16;5022441;28;20053;-95
2023/08/05 10:53:06;;;;;;;7.70;7.00;;;;;;;23.04;96.63;97703.97;5022121;28;20045;-94
2023/08/05 10:55:45;;;;;;;9.98;9.05;;;;;;;23.05;100.00;97730.94;5020570;28;20041;-93
2023/08/05 10:58:11;;;;;;;;;;;;;;;23.27;100.00;97731.59;5019871;28;20051;-93
2023/08/05 11:00:39;;;;;;;9.30;8.32;;;;;;;22.99;99.39;97728.78;5020974;28;19988;-93
2023/08/05 11:03:29;;;;;;;8.60;7.90;;;;;;;23.11;96.55;97734.91;5018849;28;20053;-92
2023/08/05 11:05:55;;;;;;;9.63;8.73;;;;;;;23.07;96.86;97719.94;5018265;28;20045;-95
2023/08/05 11:08:22;;;;;;;8.50;7.80;;;;;;;22.97;95.76;97720.78;5018961;28;20083;-94
2023/08/05 11:10:49;;;;;;;8.68;7.85;;;;;;;22.77;99.95;97703.69;5019767;28;20041;-93
2023/08/05 11:13:15;;;;;;;8.30;7.70;;;;;;;22.58;91.43;97714.53;5018765;28;20069;-92
2023/08/05 11:15:41;;;;;;;7.97;7.38;;;;;;;22.41;93.89;97737.78;5018942;28;20503;-94